^^
Station Historical Data
Daily Summary for February 4, 2018 Units:  Both    English   Metric
« Previous Day
Next Day »
Daily Weekly Monthly Yearly Custom
  High: Low: Average:
Temperature: TemperatureC °F /  -17.8 °C -13.4 °F /  -25.2 °C -10.6 °F /  -23.7 °C
Dew Point: DewpointC °F /  -17.8 °C -14.7 °F /  -25.9 °C -11.8 °F /  -24.3 °C
Humidity: Humidity% 90% 91%
Wind Speed: WindSpeedKMHmph /  0km/h - 3.5mph /  5.6km/h
Wind Gust: WindSpeedGustKMHmph /  0km/h - -
Wind- - NW
Pressure: PressurehPa in /  0 hPa 1016.8 in /  34428.8 hPa -
Precipitation: 0.0 in /  0 mm    
Historical Graphs
 
 
Tabular Data for February 4, 2018
Time Temperature Dew Point Pressure Wind Wind Speed Wind Gust Humidity Rainfall Rate (Hourly) solar Conditions
TemperatureC °F /  -17.8 °C DewpointC °F /  -17.8 °C PressurehPain /  0hPa Calm     Humidity% HourlyPrecipMMin /  0mm SoftwareType W/m2 Conditions
00:03 -10.2 °F /  -23.4 °C -11.2 °F /  -24 °C 1016.8in /  34428.8hPa NE 1.9mph /  3.1km/h 3.7mph /  6km/h 92% 0.0in /  0mm WeatherDisplay:10.37 W/m2 FEW
00:08 -10.2 °F /  -23.4 °C -11.2 °F /  -24 °C 1016.8in /  34428.8hPa Calm   1.6mph /  2.6km/h 92% 0.0in /  0mm WeatherDisplay:10.37 W/m2 FEW
00:13 -10.2 °F /  -23.4 °C -11.2 °F /  -24 °C 1016.8in /  34428.8hPa Calm     92% 0.0in /  0mm WeatherDisplay:10.37 W/m2 FEW
00:18 -10.2 °F /  -23.4 °C -11.3 °F /  -24.1 °C 1016.8in /  34428.8hPa Calm     92% 0.0in /  0mm WeatherDisplay:10.37 W/m2 FEW
00:23 -10.3 °F /  -23.5 °C -11.3 °F /  -24.1 °C 1016.8in /  34428.8hPa Calm     92% 0.0in /  0mm WeatherDisplay:10.37 W/m2 FEW
00:28 -10.3 °F /  -23.5 °C -11.3 °F /  -24.1 °C 1017.2in /  34442.4hPa NE 0.3mph /  0.5km/h 3.7mph /  6km/h 92% 0.0in /  0mm WeatherDisplay:10.37 W/m2 FEW
00:33 -10.3 °F /  -23.5 °C -11.4 °F /  -24.1 °C 1017.2in /  34442.4hPa NE 1.8mph /  2.9km/h 5.6mph /  9km/h 92% 0.0in /  0mm WeatherDisplay:10.37 W/m2 FEW
00:38 -10.5 °F /  -23.6 °C -11.7 °F /  -24.3 °C 1017.5in /  34452.6hPa Calm     91% 0.0in /  0mm WeatherDisplay:10.37 W/m2 FEW
00:43 -10.6 °F /  -23.7 °C -11.8 °F /  -24.3 °C 1017.5in /  34452.6hPa NNE 2.7mph /  4.3km/h 9.3mph /  15km/h 91% 0.0in /  0mm WeatherDisplay:10.37 W/m2 FEW
00:48 -10.7 °F /  -23.7 °C -11.9 °F /  -24.4 °C 1017.5in /  34452.6hPa Calm     91% 0.0in /  0mm WeatherDisplay:10.37 W/m2 FEW
00:53 -10.8 °F /  -23.8 °C -11.8 °F /  -24.3 °C 1017.5in /  34452.6hPa NNE 1.9mph /  3.1km/h 7.4mph /  11.9km/h 92% 0.0in /  0mm WeatherDisplay:10.37 W/m2 FEW
00:58 -10.8 °F /  -23.8 °C -12.0 °F /  -24.4 °C 1017.5in /  34452.6hPa North 1.0mph /  1.6km/h 3.7mph /  6km/h 91% 0.0in /  0mm WeatherDisplay:10.37 W/m2 FEW
01:03 -10.9 °F /  -23.8 °C -12.1 °F /  -24.5 °C 1017.5in /  34452.6hPa North 0.5mph /  0.8km/h 3.7mph /  6km/h 91% 0.0in /  0mm WeatherDisplay:10.37 W/m2 FEW
01:08 -10.9 °F /  -23.8 °C -12.1 °F /  -24.5 °C 1017.5in /  34452.6hPa North 0.8mph /  1.3km/h 3.7mph /  6km/h 91% 0.0in /  0mm WeatherDisplay:10.37 W/m2 FEW
01:13 -11.0 °F /  -23.9 °C -12.2 °F /  -24.6 °C 1017.8in /  34462.7hPa Calm     91% 0.0in /  0mm WeatherDisplay:10.37 W/m2 FEW
01:18 -11.0 °F /  -23.9 °C -12.1 °F /  -24.5 °C 1017.8in /  34462.7hPa Calm   1.9mph /  3.1km/h 92% 0.0in /  0mm WeatherDisplay:10.37 W/m2 FEW
01:23 -11.0 °F /  -23.9 °C -12.1 °F /  -24.5 °C 1017.8in /  34462.7hPa NNW 0.5mph /  0.8km/h 5.6mph /  9km/h 92% 0.0in /  0mm WeatherDisplay:10.37 W/m2 FEW
01:28 -10.9 °F /  -23.8 °C -12.0 °F /  -24.4 °C 1017.8in /  34462.7hPa NNW 1.6mph /  2.6km/h 5.6mph /  9km/h 92% 0.0in /  0mm WeatherDisplay:10.37 W/m2 FEW
01:33 -10.9 °F /  -23.8 °C -12.0 °F /  -24.4 °C 1017.8in /  34462.7hPa North 2.9mph /  4.7km/h 7.4mph /  11.9km/h 92% 0.0in /  0mm WeatherDisplay:10.37 W/m2 FEW
01:38 -10.9 °F /  -23.8 °C -11.9 °F /  -24.4 °C 1018.2in /  34476.3hPa North 2.4mph /  3.9km/h 5.6mph /  9km/h 92% 0.0in /  0mm WeatherDisplay:10.37 W/m2 FEW
01:43 -10.9 °F /  -23.8 °C -11.9 °F /  -24.4 °C 1017.8in /  34462.7hPa Calm     92% 0.0in /  0mm WeatherDisplay:10.37 W/m2 FEW
01:48 -10.8 °F /  -23.8 °C -11.9 °F /  -24.4 °C 1018.2in /  34476.3hPa Calm     92% 0.0in /  0mm WeatherDisplay:10.37 W/m2 FEW
01:53 -10.8 °F /  -23.8 °C -11.9 °F /  -24.4 °C 1017.8in /  34462.7hPa Calm     92% 0.0in /  0mm WeatherDisplay:10.37 W/m2 FEW
01:58 -10.8 °F /  -23.8 °C -11.9 °F /  -24.4 °C 1018.2in /  34476.3hPa Calm     92% 0.0in /  0mm WeatherDisplay:10.37 W/m2 FEW
02:03 -10.8 °F /  -23.8 °C -11.8 °F /  -24.3 °C 1018.2in /  34476.3hPa NNE 1.9mph /  3.1km/h 5.6mph /  9km/h 92% 0.0in /  0mm WeatherDisplay:10.37 W/m2 FEW
02:08 -10.8 °F /  -23.8 °C -11.8 °F /  -24.3 °C 1018.2in /  34476.3hPa NNE 2.9mph /  4.7km/h 5.6mph /  9km/h 92% 0.0in /  0mm WeatherDisplay:10.37 W/m2 FEW
02:13 -10.8 °F /  -23.8 °C -11.8 °F /  -24.3 °C 1018.2in /  34476.3hPa NNE 0.2mph /  0.3km/h 1.9mph /  3.1km/h 92% 0.0in /  0mm WeatherDisplay:10.37 W/m2 FEW
02:18 -10.8 °F /  -23.8 °C -11.8 °F /  -24.3 °C 1018.2in /  34476.3hPa North 3.7mph /  6km/h 13.0mph /  20.9km/h 92% 0.0in /  0mm WeatherDisplay:10.37 W/m2 FEW
02:23 -10.7 °F /  -23.7 °C -11.8 °F /  -24.3 °C 1018.2in /  34476.3hPa North 0.8mph /  1.3km/h 3.7mph /  6km/h 92% 0.0in /  0mm WeatherDisplay:10.37 W/m2 FEW
02:28 -10.7 °F /  -23.7 °C -11.8 °F /  -24.3 °C 1018.5in /  34486.4hPa North 0.6mph /  1km/h 1.9mph /  3.1km/h 92% 0.0in /  0mm WeatherDisplay:10.37 W/m2 FEW
02:33 -10.7 °F /  -23.7 °C -11.7 °F /  -24.3 °C 1018.5in /  34486.4hPa North 1.6mph /  2.6km/h 5.6mph /  9km/h 92% 0.0in /  0mm WeatherDisplay:10.37 W/m2 FEW
02:38 -10.6 °F /  -23.7 °C -11.6 °F /  -24.2 °C 1018.5in /  34486.4hPa North 3.2mph /  5.1km/h 5.6mph /  9km/h 92% 0.0in /  0mm WeatherDisplay:10.37 W/m2 FEW
02:43 -10.4 °F /  -23.6 °C -11.5 °F /  -24.2 °C 1018.5in /  34486.4hPa NNW 2.6mph /  4.2km/h 5.6mph /  9km/h 92% 0.0in /  0mm WeatherDisplay:10.37 W/m2 FEW
02:48 -10.3 °F /  -23.5 °C -11.4 °F /  -24.1 °C 1018.5in /  34486.4hPa Calm     92% 0.0in /  0mm WeatherDisplay:10.37 W/m2 FEW
02:53 -10.3 °F /  -23.5 °C -11.4 °F /  -24.1 °C 1018.5in /  34486.4hPa NNW 3.4mph /  5.5km/h 5.6mph /  9km/h 92% 0.0in /  0mm WeatherDisplay:10.37 W/m2 FEW
02:58 -10.3 °F /  -23.5 °C -11.3 °F /  -24.1 °C 1018.5in /  34486.4hPa NNE 4.7mph /  7.6km/h 9.3mph /  15km/h 92% 0.0in /  0mm WeatherDisplay:10.37 W/m2 FEW
03:03 -10.2 °F /  -23.4 °C -11.2 °F /  -24 °C 1018.5in /  34486.4hPa NNE 1.0mph /  1.6km/h 5.6mph /  9km/h 92% 0.0in /  0mm WeatherDisplay:10.37 W/m2 FEW
03:08 -10.1 °F /  -23.4 °C -11.2 °F /  -24 °C 1018.5in /  34486.4hPa NNE 2.1mph /  3.4km/h 5.6mph /  9km/h 92% 0.0in /  0mm WeatherDisplay:10.37 W/m2 FEW
03:13 -10.2 °F /  -23.4 °C -11.2 °F /  -24 °C 1018.5in /  34486.4hPa North 3.4mph /  5.5km/h 5.6mph /  9km/h 92% 0.0in /  0mm WeatherDisplay:10.37 W/m2 FEW
03:18 -10.2 °F /  -23.4 °C -11.3 °F /  -24.1 °C 1018.5in /  34486.4hPa NNW 1.8mph /  2.9km/h 3.7mph /  6km/h 92% 0.0in /  0mm WeatherDisplay:10.37 W/m2 FEW
03:23 -10.3 °F /  -23.5 °C -11.3 °F /  -24.1 °C 1018.5in /  34486.4hPa North 6.4mph /  10.3km/h 14.8mph /  23.8km/h 92% 0.0in /  0mm WeatherDisplay:10.37 W/m2 FEW
03:28 -10.3 °F /  -23.5 °C -11.4 °F /  -24.1 °C 1018.5in /  34486.4hPa North 3.7mph /  6km/h 5.6mph /  9km/h 92% 0.0in /  0mm WeatherDisplay:10.37 W/m2 FEW
03:33 -10.4 °F /  -23.6 °C -11.4 °F /  -24.1 °C 1018.5in /  34486.4hPa Calm     92% 0.0in /  0mm WeatherDisplay:10.37 W/m2 FEW
03:38 -10.6 °F /  -23.7 °C -11.7 °F /  -24.3 °C 1018.8in /  34496.6hPa Calm     91% 0.0in /  0mm WeatherDisplay:10.37 W/m2 FEW
03:43 -10.6 °F /  -23.7 °C -11.8 °F /  -24.3 °C 1018.8in /  34496.6hPa North 1.8mph /  2.9km/h 3.7mph /  6km/h 91% 0.0in /  0mm WeatherDisplay:10.37 W/m2 FEW
03:48 -10.7 °F /  -23.7 °C -11.9 °F /  -24.4 °C 1018.8in /  34496.6hPa ENE 0.8mph /  1.3km/h 5.6mph /  9km/h 91% 0.0in /  0mm WeatherDisplay:10.37 W/m2 FEW
03:53 -10.8 °F /  -23.8 °C -12.0 °F /  -24.4 °C 1018.8in /  34496.6hPa NE 0.8mph /  1.3km/h 3.7mph /  6km/h 91% 0.0in /  0mm WeatherDisplay:10.37 W/m2 FEW
03:58 -10.9 °F /  -23.8 °C -12.1 °F /  -24.5 °C 1018.8in /  34496.6hPa Calm     91% 0.0in /  0mm WeatherDisplay:10.37 W/m2 FEW
04:03 -10.9 °F /  -23.8 °C -12.1 °F /  -24.5 °C 1019.2in /  34510.1hPa Calm     91% 0.0in /  0mm WeatherDisplay:10.37 W/m2 FEW
04:08 -11.1 °F /  -23.9 °C -12.2 °F /  -24.6 °C 1019.2in /  34510.1hPa North 4.0mph /  6.4km/h 7.4mph /  11.9km/h 91% 0.0in /  0mm WeatherDisplay:10.37 W/m2 FEW
04:13 -11.2 °F /  -24 °C -12.3 °F /  -24.6 °C 1019.2in /  34510.1hPa North 0.5mph /  0.8km/h 3.7mph /  6km/h 91% 0.0in /  0mm WeatherDisplay:10.37 W/m2 FEW
04:18 -11.2 °F /  -24 °C -12.4 °F /  -24.7 °C 1019.2in /  34510.1hPa Calm     91% 0.0in /  0mm WeatherDisplay:10.37 W/m2 FEW
04:23 -11.3 °F /  -24.1 °C -12.4 °F /  -24.7 °C 1019.2in /  34510.1hPa Calm     91% 0.0in /  0mm WeatherDisplay:10.37 W/m2 FEW
04:28 -11.4 °F /  -24.1 °C -12.6 °F /  -24.8 °C 1019.5in /  34520.3hPa North 2.1mph /  3.4km/h 5.6mph /  9km/h 91% 0.0in /  0mm WeatherDisplay:10.37 W/m2 FEW
04:33 -11.4 °F /  -24.1 °C -12.6 °F /  -24.8 °C 1019.5in /  34520.3hPa NNW 1.3mph /  2.1km/h 8.0mph /  12.9km/h 91% 0.0in /  0mm WeatherDisplay:10.37 W/m2 FEW
04:38 -11.6 °F /  -24.2 °C -12.7 °F /  -24.8 °C 1019.5in /  34520.3hPa NNW 3.7mph /  6km/h 7.4mph /  11.9km/h 91% 0.0in /  0mm WeatherDisplay:10.37 W/m2 FEW
04:43 -11.6 °F /  -24.2 °C -12.8 °F /  -24.9 °C 1019.5in /  34520.3hPa Calm   1.9mph /  3.1km/h 91% 0.0in /  0mm WeatherDisplay:10.37 W/m2 FEW
04:48 -11.7 °F /  -24.3 °C -12.8 °F /  -24.9 °C 1019.9in /  34533.8hPa NNW 3.9mph /  6.3km/h 5.6mph /  9km/h 91% 0.0in /  0mm WeatherDisplay:10.37 W/m2 FEW
04:53 -11.7 °F /  -24.3 °C -12.9 °F /  -24.9 °C 1019.9in /  34533.8hPa NNW 0.8mph /  1.3km/h 3.7mph /  6km/h 91% 0.0in /  0mm WeatherDisplay:10.37 W/m2 FEW
04:58 -11.8 °F /  -24.3 °C -12.9 °F /  -24.9 °C 1019.9in /  34533.8hPa Calm     91% 0.0in /  0mm WeatherDisplay:10.37 W/m2 FEW
05:03 -11.9 °F /  -24.4 °C -13.1 °F /  -25.1 °C 1020.2in /  34544hPa North 2.1mph /  3.4km/h 5.6mph /  9km/h 91% 0.0in /  0mm WeatherDisplay:10.37 W/m2 FEW
05:08 -12.0 °F /  -24.4 °C -13.2 °F /  -25.1 °C 1020.2in /  34544hPa Calm     91% 0.0in /  0mm WeatherDisplay:10.37 W/m2 FEW
05:13 -12.1 °F /  -24.5 °C -13.2 °F /  -25.1 °C 1020.2in /  34544hPa Calm   1.9mph /  3.1km/h 91% 0.0in /  0mm WeatherDisplay:10.37 W/m2 FEW
05:18 -12.2 °F /  -24.6 °C -13.3 °F /  -25.2 °C 1019.9in /  34533.8hPa Calm   1.9mph /  3.1km/h 91% 0.0in /  0mm WeatherDisplay:10.37 W/m2 FEW
05:23 -12.2 °F /  -24.6 °C -13.4 °F /  -25.2 °C 1019.9in /  34533.8hPa NW 1.3mph /  2.1km/h 5.6mph /  9km/h 91% 0.0in /  0mm WeatherDisplay:10.37 W/m2 FEW
05:28 -12.3 °F /  -24.6 °C -13.4 °F /  -25.2 °C 1020.2in /  34544hPa Calm     91% 0.0in /  0mm WeatherDisplay:10.37 W/m2 FEW
05:33 -12.3 °F /  -24.6 °C -13.5 °F /  -25.3 °C 1020.2in /  34544hPa Calm     91% 0.0in /  0mm WeatherDisplay:10.37 W/m2 FEW
05:38 -12.3 °F /  -24.6 °C -13.5 °F /  -25.3 °C 1020.2in /  34544hPa NW 1.0mph /  1.6km/h 5.6mph /  9km/h 91% 0.0in /  0mm WeatherDisplay:10.37 W/m2 FEW
05:43 -12.4 °F /  -24.7 °C -13.6 °F /  -25.3 °C 1020.2in /  34544hPa Calm     91% 0.0in /  0mm WeatherDisplay:10.37 W/m2 FEW
05:48 -12.5 °F /  -24.7 °C -13.7 °F /  -25.4 °C 1020.2in /  34544hPa Calm     91% 0.0in /  0mm WeatherDisplay:10.37 W/m2 FEW
05:53 -12.6 °F /  -24.8 °C -13.7 °F /  -25.4 °C 1020.2in /  34544hPa Calm     91% 0.0in /  0mm WeatherDisplay:10.37 W/m2 FEW
05:58 -12.6 °F /  -24.8 °C -13.8 °F /  -25.4 °C 1020.2in /  34544hPa Calm     91% 0.0in /  0mm WeatherDisplay:10.37 W/m2 FEW
06:03 -12.7 °F /  -24.8 °C -13.8 °F /  -25.4 °C 1020.2in /  34544hPa NNW 0.2mph /  0.3km/h 1.9mph /  3.1km/h 91% 0.0in /  0mm WeatherDisplay:10.37 W/m2 FEW
06:08 -12.7 °F /  -24.8 °C -13.9 °F /  -25.5 °C 1020.5in /  34554.1hPa Calm     91% 0.0in /  0mm WeatherDisplay:10.37 W/m2 FEW
06:13 -12.8 °F /  -24.9 °C -13.9 °F /  -25.5 °C 1020.5in /  34554.1hPa NNW 0.6mph /  1km/h 3.7mph /  6km/h 91% 0.0in /  0mm WeatherDisplay:10.37 W/m2 FEW
06:18 -12.8 °F /  -24.9 °C -14.0 °F /  -25.6 °C 1020.5in /  34554.1hPa NNW 4.0mph /  6.4km/h 9.3mph /  15km/h 91% 0.0in /  0mm WeatherDisplay:10.37 W/m2 FEW
06:23 -12.8 °F /  -24.9 °C -14.0 °F /  -25.6 °C 1020.5in /  34554.1hPa NNW 2.1mph /  3.4km/h 5.6mph /  9km/h 91% 0.0in /  0mm WeatherDisplay:10.37 W/m2 FEW
06:28 -12.8 °F /  -24.9 °C -14.0 °F /  -25.6 °C 1020.9in /  34567.7hPa NNW 1.1mph /  1.8km/h 5.6mph /  9km/h 91% 0.0in /  0mm WeatherDisplay:10.37 W/m2 FEW
06:33 -12.9 °F /  -24.9 °C -14.1 °F /  -25.6 °C 1020.9in /  34567.7hPa NNW 1.1mph /  1.8km/h 4.8mph /  7.7km/h 91% 0.0in /  0mm WeatherDisplay:10.37 W/m2 FEW
06:38 -12.9 °F /  -24.9 °C -14.1 °F /  -25.6 °C 1020.9in /  34567.7hPa NNW 0.5mph /  0.8km/h 3.7mph /  6km/h 91% 0.0in /  0mm WeatherDisplay:10.37 W/m2 FEW
06:43 -12.9 °F /  -24.9 °C -14.1 °F /  -25.6 °C 1020.9in /  34567.7hPa Calm     91% 0.0in /  0mm WeatherDisplay:10.37 W/m2 FEW
06:48 -12.9 °F /  -24.9 °C -14.1 °F /  -25.6 °C 1021.2in /  34577.8hPa Calm   1.9mph /  3.1km/h 91% 0.0in /  0mm WeatherDisplay:10.37 W/m2 FEW
06:53 -13.0 °F /  -25 °C -14.2 °F /  -25.7 °C 1020.9in /  34567.7hPa Calm     91% 0.0in /  0mm WeatherDisplay:10.37 W/m2 FEW
06:58 -13.1 °F /  -25.1 °C -14.3 °F /  -25.7 °C 1021.2in /  34577.8hPa Calm     90% 0.0in /  0mm WeatherDisplay:10.37 W/m2 FEW
07:03 -13.1 °F /  -25.1 °C -14.3 °F /  -25.7 °C 1021.2in /  34577.8hPa Calm     91% 0.0in /  0mm WeatherDisplay:10.37 W/m2 FEW
07:08 -13.2 °F /  -25.1 °C -14.3 °F /  -25.7 °C 1021.2in /  34577.8hPa North 2.3mph /  3.7km/h 5.6mph /  9km/h 91% 0.0in /  0mm WeatherDisplay:10.37 W/m2 FEW
07:13 -13.2 °F /  -25.1 °C -14.3 °F /  -25.7 °C 1021.2in /  34577.8hPa Calm     91% 0.0in /  0mm WeatherDisplay:10.37 W/m2 FEW
07:18 -13.2 °F /  -25.1 °C -14.4 °F /  -25.8 °C 1021.2in /  34577.8hPa Calm     91% 0.0in /  0mm WeatherDisplay:10.37 W/m2 FEW
07:23 -13.2 °F /  -25.1 °C -14.5 °F /  -25.8 °C 1021.2in /  34577.8hPa NNW 2.4mph /  3.9km/h 5.6mph /  9km/h 90% 0.0in /  0mm WeatherDisplay:10.37 W/m2 FEW
07:28 -13.3 °F /  -25.2 °C -14.6 °F /  -25.9 °C 1021.2in /  34577.8hPa Calm     90% 0.0in /  0mm WeatherDisplay:10.37 W/m2 FEW
07:33 -13.3 °F /  -25.2 °C -14.6 °F /  -25.9 °C 1021.2in /  34577.8hPa Calm     90% 0.0in /  0mm WeatherDisplay:10.37 W/m2 FEW
07:38 -13.3 °F /  -25.2 °C -14.6 °F /  -25.9 °C 1021.6in /  34591.4hPa Calm     90% 0.0in /  0mm WeatherDisplay:10.37 W/m2 FEW
07:43 -13.4 °F /  -25.2 °C -14.7 °F /  -25.9 °C 1021.6in /  34591.4hPa NNW 2.6mph /  4.2km/h 7.4mph /  11.9km/h 90% 0.0in /  0mm WeatherDisplay:10.37 W/m2 FEW
07:48 -13.3 °F /  -25.2 °C -14.5 °F /  -25.8 °C 1021.6in /  34591.4hPa Calm   1.9mph /  3.1km/h 91% 0.0in /  0mm WeatherDisplay:10.37 W/m2 FEW
07:53 -13.3 °F /  -25.2 °C -14.4 °F /  -25.8 °C 1021.6in /  34591.4hPa Calm     91% 0.0in /  0mm WeatherDisplay:10.37 W/m2 FEW
07:58 -13.3 °F /  -25.2 °C -14.4 °F /  -25.8 °C 1021.6in /  34591.4hPa Calm     91% 0.0in /  0mm WeatherDisplay:10.37 W/m2 FEW
08:03 -13.3 °F /  -25.2 °C -14.4 °F /  -25.8 °C 1021.6in /  34591.4hPa NNW 0.2mph /  0.3km/h 1.9mph /  3.1km/h 91% 0.0in /  0mm WeatherDisplay:10.37 W/m2 FEW
08:08 -13.3 °F /  -25.2 °C -14.4 °F /  -25.8 °C 1021.6in /  34591.4hPa NNW 1.1mph /  1.8km/h 5.6mph /  9km/h 91% 0.0in /  0mm WeatherDisplay:10.37 W/m2 FEW
08:13 -13.3 °F /  -25.2 °C -14.4 °F /  -25.8 °C 1021.9in /  34601.5hPa NE 1.6mph /  2.6km/h 5.6mph /  9km/h 91% 0.0in /  0mm WeatherDisplay:10.37 W/m2 FEW
08:18 -13.3 °F /  -25.2 °C -14.4 °F /  -25.8 °C 1021.9in /  34601.5hPa Calm     91% 0.0in /  0mm WeatherDisplay:10.37 W/m2 FEW
08:23 -13.2 °F /  -25.1 °C -14.4 °F /  -25.8 °C 1021.9in /  34601.5hPa NNW 1.8mph /  2.9km/h 5.6mph /  9km/h 91% 0.0in /  0mm WeatherDisplay:10.37 W/m2 FEW
08:28 -13.2 °F /  -25.1 °C -14.4 °F /  -25.8 °C 1021.9in /  34601.5hPa Calm   1.9mph /  3.1km/h 91% 0.0in /  0mm WeatherDisplay:10.37 W/m2 FEW
08:33 -13.3 °F /  -25.2 °C -14.6 °F /  -25.9 °C 1022.2in /  34611.7hPa Calm     90% 0.0in /  0mm WeatherDisplay:10.37 W/m2 FEW
08:38 -13.2 °F /  -25.1 °C -14.5 °F /  -25.8 °C 1022.2in /  34611.7hPa Calm   1.6mph /  2.6km/h 90% 0.0in /  0mm WeatherDisplay:10.37 W/m2 FEW
08:43 -13.2 °F /  -25.1 °C -14.5 °F /  -25.8 °C 1022.2in /  34611.7hPa North 1.9mph /  3.1km/h 5.6mph /  9km/h 90% 0.0in /  0mm WeatherDisplay:10.37 W/m2 FEW
08:48 -13.2 °F /  -25.1 °C -14.5 °F /  -25.8 °C 1022.2in /  34611.7hPa Calm     90% 0.0in /  0mm WeatherDisplay:10.37 W/m2 FEW
08:53 -13.2 °F /  -25.1 °C -14.4 °F /  -25.8 °C 1022.2in /  34611.7hPa Calm     91% 0.0in /  0mm WeatherDisplay:10.37 W/m2 FEW
08:58 -13.2 °F /  -25.1 °C -14.4 °F /  -25.8 °C 1022.6in /  34625.2hPa NNW 1.4mph /  2.3km/h 3.7mph /  6km/h 91% 0.0in /  0mm WeatherDisplay:10.37 W/m2 FEW
09:03 -13.2 °F /  -25.1 °C -14.3 °F /  -25.7 °C 1022.6in /  34625.2hPa NNW 2.6mph /  4.2km/h 9.3mph /  15km/h 91% 0.0in /  0mm WeatherDisplay:10.37 W/m2 FEW
09:08 -13.1 °F /  -25.1 °C -14.3 °F /  -25.7 °C 1022.9in /  34635.4hPa NNW 2.7mph /  4.3km/h 9.3mph /  15km/h 91% 0.0in /  0mm WeatherDisplay:10.37 W/m2 FEW
09:13 -13.1 °F /  -25.1 °C -14.3 °F /  -25.7 °C 1022.9in /  34635.4hPa NNW 4.7mph /  7.6km/h 9.3mph /  15km/h 91% 0.0in /  0mm WeatherDisplay:10.37 W/m2 FEW
09:18 -13.1 °F /  -25.1 °C -14.2 °F /  -25.7 °C 1022.9in /  34635.4hPa NNW 4.7mph /  7.6km/h 7.4mph /  11.9km/h 91% 0.0in /  0mm WeatherDisplay:10.37 W/m2 FEW
09:23 -12.9 °F /  -24.9 °C -14.1 °F /  -25.6 °C 1023.2in /  34645.6hPa NNW 5.8mph /  9.3km/h 13.0mph /  20.9km/h 91% 0.0in /  0mm WeatherDisplay:10.37 W/m2 FEW
09:28 -12.8 °F /  -24.9 °C -14.0 °F /  -25.6 °C 1023.2in /  34645.6hPa NNW 1.0mph /  1.6km/h 5.6mph /  9km/h 91% 0.0in /  0mm WeatherDisplay:10.37 W/m2 FEW
09:33 -12.8 °F /  -24.9 °C -13.9 °F /  -25.5 °C 1023.2in /  34645.6hPa NW 2.9mph /  4.7km/h 5.6mph /  9km/h 91% 0.0in /  0mm WeatherDisplay:10.37 W/m2 FEW
09:38 -12.7 °F /  -24.8 °C -13.9 °F /  -25.5 °C 1023.2in /  34645.6hPa NW 2.3mph /  3.7km/h 5.6mph /  9km/h 91% 0.0in /  0mm WeatherDisplay:10.37 W/m2 FEW
09:43 -12.7 °F /  -24.8 °C -13.9 °F /  -25.5 °C 1023.2in /  34645.6hPa NNW 1.6mph /  2.6km/h 3.7mph /  6km/h 91% 0.0in /  0mm WeatherDisplay:10.37 W/m2 FEW
09:48 -12.6 °F /  -24.8 °C -13.8 °F /  -25.4 °C 1023.2in /  34645.6hPa NW 1.1mph /  1.8km/h 5.6mph /  9km/h 91% 0.0in /  0mm WeatherDisplay:10.37 W/m2 FEW
09:53 -12.6 °F /  -24.8 °C -13.7 °F /  -25.4 °C 1023.2in /  34645.6hPa Calm     91% 0.0in /  0mm WeatherDisplay:10.37 W/m2 FEW
09:58 -12.4 °F /  -24.7 °C -13.6 °F /  -25.3 °C 1023.2in /  34645.6hPa NNW 4.3mph /  6.9km/h 7.4mph /  11.9km/h 91% 0.0in /  0mm WeatherDisplay:10.37 W/m2 FEW
10:03 -12.4 °F /  -24.7 °C -13.6 °F /  -25.3 °C 1023.2in /  34645.6hPa NW 4.7mph /  7.6km/h 11.3mph /  18.2km/h 91% 0.0in /  0mm WeatherDisplay:10.37 W/m2 FEW
10:08 -12.3 °F /  -24.6 °C -13.4 °F /  -25.2 °C 1023.6in /  34659.1hPa NNW 4.0mph /  6.4km/h 9.3mph /  15km/h 91% 0.0in /  0mm WeatherDisplay:10.37 W/m2 FEW
10:13 -12.2 °F /  -24.6 °C -13.4 °F /  -25.2 °C 1023.6in /  34659.1hPa NNW 4.7mph /  7.6km/h 7.4mph /  11.9km/h 91% 0.0in /  0mm WeatherDisplay:10.37 W/m2 FEW
10:18 -12.2 °F /  -24.6 °C -13.3 °F /  -25.2 °C 1023.6in /  34659.1hPa NNW 5.0mph /  8km/h 9.3mph /  15km/h 91% 0.0in /  0mm WeatherDisplay:10.37 W/m2 FEW
10:23 -12.1 °F /  -24.5 °C -13.2 °F /  -25.1 °C 1023.9in /  34669.3hPa NNW 3.4mph /  5.5km/h 9.3mph /  15km/h 91% 0.0in /  0mm WeatherDisplay:10.37 W/m2 FEW
10:28 -11.9 °F /  -24.4 °C -13.1 °F /  -25.1 °C 1023.6in /  34659.1hPa NNW 0.2mph /  0.3km/h 5.6mph /  9km/h 91% 0.0in /  0mm WeatherDisplay:10.37 W/m2 FEW
10:33 -11.8 °F /  -24.3 °C -13.0 °F /  -25 °C 1023.9in /  34669.3hPa North 5.0mph /  8km/h 5.6mph /  9km/h 91% 0.0in /  0mm WeatherDisplay:10.37 W/m2 FEW
10:38 -11.7 °F /  -24.3 °C -12.9 °F /  -24.9 °C 1023.9in /  34669.3hPa NNW 4.5mph /  7.2km/h 7.4mph /  11.9km/h 91% 0.0in /  0mm WeatherDisplay:10.37 W/m2 FEW
10:43 -11.6 °F /  -24.2 °C -12.8 °F /  -24.9 °C 1023.9in /  34669.3hPa NNW 2.9mph /  4.7km/h 6.4mph /  10.3km/h 91% 0.0in /  0mm WeatherDisplay:10.37 W/m2 FEW
10:48 -11.5 °F /  -24.2 °C -12.7 °F /  -24.8 °C 1023.9in /  34669.3hPa NNW 5.3mph /  8.5km/h 8.0mph /  12.9km/h 91% 0.0in /  0mm WeatherDisplay:10.37 W/m2 FEW
10:53 -11.4 °F /  -24.1 °C -12.6 °F /  -24.8 °C 1023.9in /  34669.3hPa NNW 4.8mph /  7.7km/h 9.3mph /  15km/h 91% 0.0in /  0mm WeatherDisplay:10.37 W/m2 FEW
10:58 -11.3 °F /  -24.1 °C -12.4 °F /  -24.7 °C 1023.9in /  34669.3hPa NNW 3.4mph /  5.5km/h 9.3mph /  15km/h 91% 0.0in /  0mm WeatherDisplay:10.37 W/m2 FEW
11:04 -11.1 °F /  -23.9 °C -12.3 °F /  -24.6 °C 1023.9in /  34669.3hPa NW 9.8mph /  15.8km/h 16.7mph /  26.9km/h 91% 0.0in /  0mm WeatherDisplay:10.37 W/m2 FEW
11:09 -10.9 °F /  -23.8 °C -12.1 °F /  -24.5 °C 1023.9in /  34669.3hPa NNW 3.7mph /  6km/h 7.4mph /  11.9km/h 91% 0.0in /  0mm WeatherDisplay:10.37 W/m2 FEW
11:14 -10.8 °F /  -23.8 °C -11.9 °F /  -24.4 °C 1023.9in /  34669.3hPa NNW 7.1mph /  11.4km/h 16.7mph /  26.9km/h 91% 0.0in /  0mm WeatherDisplay:10.37 W/m2 FEW
11:19 -10.7 °F /  -23.7 °C -11.8 °F /  -24.3 °C 1023.9in /  34669.3hPa NNW 2.3mph /  3.7km/h 5.6mph /  9km/h 91% 0.0in /  0mm WeatherDisplay:10.37 W/m2 FEW
11:24 -10.6 °F /  -23.7 °C -11.7 °F /  -24.3 °C 1023.9in /  34669.3hPa NNW 2.1mph /  3.4km/h 6.4mph /  10.3km/h 91% 0.0in /  0mm WeatherDisplay:10.37 W/m2 FEW
11:29 -10.4 °F /  -23.6 °C -11.6 °F /  -24.2 °C 1023.9in /  34669.3hPa NNW 0.2mph /  0.3km/h 13.0mph /  20.9km/h 91% 0.0in /  0mm WeatherDisplay:10.37 W/m2 FEW
11:35 -10.3 °F /  -23.5 °C -11.4 °F /  -24.1 °C 1023.9in /  34669.3hPa NNW 0.2mph /  0.3km/h 5.6mph /  9km/h 91% 0.0in /  0mm WeatherDisplay:10.37 W/m2 FEW
11:40 -10.2 °F /  -23.4 °C -11.3 °F /  -24.1 °C 1023.9in /  34669.3hPa NNW 5.6mph /  9km/h 7.4mph /  11.9km/h 91% 0.0in /  0mm WeatherDisplay:10.37 W/m2 FEW
11:45 -10.0 °F /  -23.3 °C -11.2 °F /  -24 °C 1023.9in /  34669.3hPa NW 3.7mph /  6km/h 13.0mph /  20.9km/h 91% 0.0in /  0mm WeatherDisplay:10.37 W/m2 FEW
11:50 -9.8 °F /  -23.2 °C -11.0 °F /  -23.9 °C 1023.9in /  34669.3hPa NNW 4.0mph /  6.4km/h 7.4mph /  11.9km/h 91% 0.0in /  0mm WeatherDisplay:10.37 W/m2 FEW
11:55 -9.7 °F /  -23.2 °C -10.9 °F /  -23.8 °C 1023.9in /  34669.3hPa NNW 6.1mph /  9.8km/h 13.0mph /  20.9km/h 91% 0.0in /  0mm WeatherDisplay:10.37 W/m2 FEW
12:00 -9.6 °F /  -23.1 °C -10.8 °F /  -23.8 °C 1023.9in /  34669.3hPa NW 4.3mph /  6.9km/h 14.8mph /  23.8km/h 91% 0.0in /  0mm WeatherDisplay:10.37 W/m2 FEW
12:05 -9.4 °F /  -23 °C -10.7 °F /  -23.7 °C 1023.9in /  34669.3hPa NW 1.8mph /  2.9km/h 3.2mph /  5.1km/h 91% 0.0in /  0mm WeatherDisplay:10.37 W/m2 FEW
12:10 -9.3 °F /  -22.9 °C -10.6 °F /  -23.7 °C 1023.9in /  34669.3hPa North 1.9mph /  3.1km/h 5.6mph /  9km/h 91% 0.0in /  0mm WeatherDisplay:10.37 W/m2 FEW
12:15 -9.3 °F /  -22.9 °C -10.7 °F /  -23.7 °C 1023.9in /  34669.3hPa NNW 4.3mph /  6.9km/h 13.0mph /  20.9km/h 90% 0.0in /  0mm WeatherDisplay:10.37 W/m2 FEW
12:20 -9.3 °F /  -22.9 °C -10.6 °F /  -23.7 °C 1023.9in /  34669.3hPa NNE 1.3mph /  2.1km/h 5.6mph /  9km/h 90% 0.0in /  0mm WeatherDisplay:10.37 W/m2 FEW
12:25 -9.2 °F /  -22.9 °C -10.6 °F /  -23.7 °C 1023.9in /  34669.3hPa NNW 5.1mph /  8.2km/h 9.3mph /  15km/h 90% 0.0in /  0mm WeatherDisplay:10.37 W/m2 FEW
12:30 -9.2 °F /  -22.9 °C -10.5 °F /  -23.6 °C 1023.9in /  34669.3hPa NNW 2.9mph /  4.7km/h 7.4mph /  11.9km/h 90% 0.0in /  0mm WeatherDisplay:10.37 W/m2 FEW
12:35 -9.1 °F /  -22.8 °C -10.3 °F /  -23.5 °C 1024.3in /  34682.8hPa NNW 1.4mph /  2.3km/h 7.4mph /  11.9km/h 91% 0.0in /  0mm WeatherDisplay:10.37 W/m2 FEW
12:40 -9.1 °F /  -22.8 °C -10.4 °F /  -23.6 °C 1023.9in /  34669.3hPa NNW 5.1mph /  8.2km/h 5.6mph /  9km/h 90% 0.0in /  0mm WeatherDisplay:10.37 W/m2 FEW
12:45 -9.1 °F /  -22.8 °C -10.4 °F /  -23.6 °C 1023.9in /  34669.3hPa NNW 1.0mph /  1.6km/h 7.4mph /  11.9km/h 90% 0.0in /  0mm WeatherDisplay:10.37 W/m2 FEW
12:50 -9.0 °F /  -22.8 °C -10.3 °F /  -23.5 °C 1024.3in /  34682.8hPa NNW 7.6mph /  12.2km/h 18.5mph /  29.8km/h 90% 0.0in /  0mm WeatherDisplay:10.37 W/m2 FEW
12:55 -8.9 °F /  -22.7 °C -10.2 °F /  -23.4 °C 1024.3in /  34682.8hPa NNW 3.2mph /  5.1km/h 7.4mph /  11.9km/h 90% 0.0in /  0mm WeatherDisplay:10.37 W/m2 FEW
13:00 -8.8 °F /  -22.7 °C -10.2 °F /  -23.4 °C 1024.3in /  34682.8hPa NNW 6.0mph /  9.7km/h 14.8mph /  23.8km/h 90% 0.0in /  0mm WeatherDisplay:10.37 W/m2 FEW
13:05 -8.8 °F /  -22.7 °C -10.1 °F /  -23.4 °C 1024.3in /  34682.8hPa NNW 2.1mph /  3.4km/h 14.8mph /  23.8km/h 90% 0.0in /  0mm WeatherDisplay:10.37 W/m2 FEW
13:10 -8.7 °F /  -22.6 °C -10.1 °F /  -23.4 °C 1024.3in /  34682.8hPa NW 7.1mph /  11.4km/h 8.0mph /  12.9km/h 90% 0.0in /  0mm WeatherDisplay:10.37 W/m2 FEW
13:15 -8.7 °F /  -22.6 °C -10.1 °F /  -23.4 °C 1024.3in /  34682.8hPa NNW 0.5mph /  0.8km/h 1.6mph /  2.6km/h 90% 0.0in /  0mm WeatherDisplay:10.37 W/m2 FEW
13:20 -8.7 °F /  -22.6 °C -10.1 °F /  -23.4 °C 1024.3in /  34682.8hPa NNW 6.4mph /  10.3km/h 13.0mph /  20.9km/h 90% 0.0in /  0mm WeatherDisplay:10.37 W/m2 FEW
13:25 -8.7 °F /  -22.6 °C -10.0 °F /  -23.3 °C 1024.3in /  34682.8hPa NNW 0.5mph /  0.8km/h 8.0mph /  12.9km/h 90% 0.0in /  0mm WeatherDisplay:10.37 W/m2 FEW
13:30 -8.6 °F /  -22.6 °C -9.9 °F /  -23.3 °C 1024.3in /  34682.8hPa NNW 4.2mph /  6.8km/h 6.4mph /  10.3km/h 90% 0.0in /  0mm WeatherDisplay:10.37 W/m2 FEW
13:35 -8.5 °F /  -22.5 °C -9.8 °F /  -23.2 °C 1024.3in /  34682.8hPa NNW 9.2mph /  14.8km/h 16.7mph /  26.9km/h 90% 0.0in /  0mm WeatherDisplay:10.37 W/m2 FEW
13:40 -8.4 °F /  -22.4 °C -9.8 °F /  -23.2 °C 1024.3in /  34682.8hPa NNW 3.7mph /  6km/h 5.6mph /  9km/h 90% 0.0in /  0mm WeatherDisplay:10.37 W/m2 FEW
13:45 -8.4 °F /  -22.4 °C -9.8 °F /  -23.2 °C 1024.3in /  34682.8hPa NNW 5.8mph /  9.3km/h 14.8mph /  23.8km/h 90% 0.0in /  0mm WeatherDisplay:10.37 W/m2 FEW
13:50 -8.4 °F /  -22.4 °C -9.7 °F /  -23.2 °C 1024.3in /  34682.8hPa NNW 4.8mph /  7.7km/h 9.3mph /  15km/h 90% 0.0in /  0mm WeatherDisplay:10.37 W/m2 FEW
13:55 -8.3 °F /  -22.4 °C -9.7 °F /  -23.2 °C 1024.3in /  34682.8hPa NW 3.9mph /  6.3km/h 5.6mph /  9km/h 90% 0.0in /  0mm WeatherDisplay:10.37 W/m2 FEW
14:00 -8.3 °F /  -22.4 °C -9.7 °F /  -23.2 °C 1024.3in /  34682.8hPa NW 6.0mph /  9.7km/h 9.3mph /  15km/h 90% 0.0in /  0mm WeatherDisplay:10.37 W/m2 FEW
14:05 -8.2 °F /  -22.3 °C -9.6 °F /  -23.1 °C 1024.6in /  34693hPa NW 8.0mph /  12.9km/h 16.7mph /  26.9km/h 90% 0.0in /  0mm WeatherDisplay:10.37 W/m2 FEW
14:10 -8.2 °F /  -22.3 °C -9.6 °F /  -23.1 °C 1024.6in /  34693hPa NNW 9.0mph /  14.5km/h 9.0mph /  14.5km/h 90% 0.0in /  0mm WeatherDisplay:10.37 W/m2 FEW
14:15 -8.2 °F /  -22.3 °C -9.5 °F /  -23.1 °C 1024.6in /  34693hPa NNW 6.9mph /  11.1km/h 9.3mph /  15km/h 90% 0.0in /  0mm WeatherDisplay:10.37 W/m2 FEW
14:20 -8.1 °F /  -22.3 °C -9.4 °F /  -23 °C 1024.6in /  34693hPa NNW 4.0mph /  6.4km/h 13.0mph /  20.9km/h 90% 0.0in /  0mm WeatherDisplay:10.37 W/m2 FEW
14:25 -8.1 °F /  -22.3 °C -9.4 °F /  -23 °C 1024.6in /  34693hPa NNW 4.3mph /  6.9km/h 7.4mph /  11.9km/h 90% 0.0in /  0mm WeatherDisplay:10.37 W/m2 FEW
14:30 -8.0 °F /  -22.2 °C -9.3 °F /  -22.9 °C 1024.6in /  34693hPa NNW 3.4mph /  5.5km/h 7.4mph /  11.9km/h 90% 0.0in /  0mm WeatherDisplay:10.37 W/m2 FEW
14:35 -7.9 °F /  -22.2 °C -9.3 °F /  -22.9 °C 1024.6in /  34693hPa NW 6.1mph /  9.8km/h 16.7mph /  26.9km/h 90% 0.0in /  0mm WeatherDisplay:10.37 W/m2 FEW
14:39 -7.9 °F /  -22.2 °C -9.3 °F /  -22.9 °C 1024.6in /  34693hPa NW 1.4mph /  2.3km/h 9.3mph /  15km/h 90% 0.0in /  0mm WeatherDisplay:10.37 W/m2 FEW
14:44 -7.9 °F /  -22.2 °C -9.3 °F /  -22.9 °C 1024.6in /  34693hPa NW 5.8mph /  9.3km/h 7.4mph /  11.9km/h 90% 0.0in /  0mm WeatherDisplay:10.37 W/m2 FEW
14:49 -7.9 °F /  -22.2 °C -9.2 °F /  -22.9 °C 1024.9in /  34703.1hPa NNW 1.1mph /  1.8km/h   90% 0.0in /  0mm WeatherDisplay:10.37 W/m2 FEW
14:54 -7.9 °F /  -22.2 °C -9.2 °F /  -22.9 °C 1024.9in /  34703.1hPa NNW 4.3mph /  6.9km/h 13.0mph /  20.9km/h 90% 0.0in /  0mm WeatherDisplay:10.37 W/m2 FEW
14:59 -7.9 °F /  -22.2 °C -9.2 °F /  -22.9 °C 1024.9in /  34703.1hPa NNW 1.6mph /  2.6km/h 16.7mph /  26.9km/h 90% 0.0in /  0mm WeatherDisplay:10.37 W/m2 FEW
15:04 -7.8 °F /  -22.1 °C -9.2 °F /  -22.9 °C 1024.9in /  34703.1hPa NNW 5.5mph /  8.9km/h 5.6mph /  9km/h 90% 0.0in /  0mm WeatherDisplay:10.37 W/m2 FEW
15:09 -7.8 °F /  -22.1 °C -9.2 °F /  -22.9 °C 1024.9in /  34703.1hPa NNW 7.6mph /  12.2km/h 13.0mph /  20.9km/h 90% 0.0in /  0mm WeatherDisplay:10.37 W/m2 FEW
15:14 -7.8 °F /  -22.1 °C -9.2 °F /  -22.9 °C 1024.9in /  34703.1hPa NNW 3.2mph /  5.1km/h 5.6mph /  9km/h 90% 0.0in /  0mm WeatherDisplay:10.37 W/m2 FEW
15:19 -7.9 °F /  -22.2 °C -9.2 °F /  -22.9 °C 1024.9in /  34703.1hPa NNW 3.7mph /  6km/h 13.0mph /  20.9km/h 90% 0.0in /  0mm WeatherDisplay:10.37 W/m2 FEW
15:24 -7.9 °F /  -22.2 °C -9.3 °F /  -22.9 °C 1024.9in /  34703.1hPa NW 7.2mph /  11.6km/h 14.8mph /  23.8km/h 90% 0.0in /  0mm WeatherDisplay:10.37 W/m2 FEW
15:29 -8.0 °F /  -22.2 °C -9.3 °F /  -22.9 °C 1024.9in /  34703.1hPa NNW 5.5mph /  8.9km/h 7.4mph /  11.9km/h 90% 0.0in /  0mm WeatherDisplay:10.37 W/m2 FEW
15:34 -8.1 °F /  -22.3 °C -9.4 °F /  -23 °C 1024.9in /  34703.1hPa NNW 4.5mph /  7.2km/h 7.4mph /  11.9km/h 90% 0.0in /  0mm WeatherDisplay:10.37 W/m2 FEW
15:39 -8.2 °F /  -22.3 °C -9.5 °F /  -23.1 °C 1024.9in /  34703.1hPa NNW 4.5mph /  7.2km/h 7.4mph /  11.9km/h 90% 0.0in /  0mm WeatherDisplay:10.37 W/m2 FEW
15:44 -8.2 °F /  -22.3 °C -9.6 °F /  -23.1 °C 1024.9in /  34703.1hPa NNW 7.2mph /  11.6km/h 14.8mph /  23.8km/h 90% 0.0in /  0mm WeatherDisplay:10.37 W/m2 FEW
15:49 -8.3 °F /  -22.4 °C -9.6 °F /  -23.1 °C 1024.9in /  34703.1hPa NNW 2.9mph /  4.7km/h 7.4mph /  11.9km/h 90% 0.0in /  0mm WeatherDisplay:10.37 W/m2 FEW
15:54 -8.3 °F /  -22.4 °C -9.7 °F /  -23.2 °C 1025.3in /  34716.7hPa NNW 5.1mph /  8.2km/h 14.8mph /  23.8km/h 90% 0.0in /  0mm WeatherDisplay:10.37 W/m2 FEW
15:59 -8.4 °F /  -22.4 °C -9.8 °F /  -23.2 °C 1025.3in /  34716.7hPa NNW 5.5mph /  8.9km/h 7.4mph /  11.9km/h 90% 0.0in /  0mm WeatherDisplay:10.37 W/m2 FEW
16:04 -8.5 °F /  -22.5 °C -9.8 °F /  -23.2 °C 1025.3in /  34716.7hPa NNW 5.5mph /  8.9km/h 7.4mph /  11.9km/h 90% 0.0in /  0mm WeatherDisplay:10.37 W/m2 FEW
16:09 -8.6 °F /  -22.6 °C -9.9 °F /  -23.3 °C 1025.3in /  34716.7hPa NNW 3.9mph /  6.3km/h 5.6mph /  9km/h 90% 0.0in /  0mm WeatherDisplay:10.37 W/m2 FEW
16:14 -8.7 °F /  -22.6 °C -10.0 °F /  -23.3 °C 1025.3in /  34716.7hPa NNW 2.4mph /  3.9km/h 9.3mph /  15km/h 90% 0.0in /  0mm WeatherDisplay:10.37 W/m2 FEW
16:19 -8.7 °F /  -22.6 °C -10.1 °F /  -23.4 °C 1025.3in /  34716.7hPa NNW 1.4mph /  2.3km/h 5.6mph /  9km/h 90% 0.0in /  0mm WeatherDisplay:10.37 W/m2 FEW
16:24 -8.8 °F /  -22.7 °C -10.2 °F /  -23.4 °C 1025.3in /  34716.7hPa NNW 2.3mph /  3.7km/h 5.6mph /  9km/h 90% 0.0in /  0mm WeatherDisplay:10.37 W/m2 FEW
16:29 -8.9 °F /  -22.7 °C -10.2 °F /  -23.4 °C 1025.3in /  34716.7hPa NW 7.6mph /  12.2km/h 9.3mph /  15km/h 90% 0.0in /  0mm WeatherDisplay:10.37 W/m2 FEW
16:34 -8.9 °F /  -22.7 °C -10.2 °F /  -23.4 °C 1025.6in /  34726.8hPa NNW 2.6mph /  4.2km/h 9.3mph /  15km/h 91% 0.0in /  0mm WeatherDisplay:10.37 W/m2 FEW
16:39 -9.0 °F /  -22.8 °C -10.2 °F /  -23.4 °C 1025.6in /  34726.8hPa NNW 5.5mph /  8.9km/h 9.7mph /  15.6km/h 91% 0.0in /  0mm WeatherDisplay:10.37 W/m2 FEW
16:44 -9.1 °F /  -22.8 °C -10.3 °F /  -23.5 °C 1025.6in /  34726.8hPa NNW 3.5mph /  5.6km/h 5.6mph /  9km/h 91% 0.0in /  0mm WeatherDisplay:10.37 W/m2 FEW
16:49 -9.1 °F /  -22.8 °C -10.3 °F /  -23.5 °C 1025.6in /  34726.8hPa NW 6.3mph /  10.1km/h 14.8mph /  23.8km/h 91% 0.0in /  0mm WeatherDisplay:10.37 W/m2 FEW
16:54 -9.2 °F /  -22.9 °C -10.4 °F /  -23.6 °C 1025.6in /  34726.8hPa NNW 7.7mph /  12.4km/h 7.7mph /  12.4km/h 91% 0.0in /  0mm WeatherDisplay:10.37 W/m2 FEW
16:59 -9.2 °F /  -22.9 °C -10.4 °F /  -23.6 °C 1025.6in /  34726.8hPa NNW 6.3mph /  10.1km/h 13.0mph /  20.9km/h 91% 0.0in /  0mm WeatherDisplay:10.37 W/m2 FEW
17:04 -9.3 °F /  -22.9 °C -10.6 °F /  -23.7 °C 1025.6in /  34726.8hPa NNW 4.2mph /  6.8km/h 13.0mph /  20.9km/h 90% 0.0in /  0mm WeatherDisplay:10.37 W/m2 FEW
17:09 -9.4 °F /  -23 °C -10.6 °F /  -23.7 °C 1025.6in /  34726.8hPa North 3.4mph /  5.5km/h 5.6mph /  9km/h 91% 0.0in /  0mm WeatherDisplay:10.37 W/m2 FEW
17:14 -9.5 °F /  -23.1 °C -10.8 °F /  -23.8 °C 1026.0in /  34740.4hPa NNW 8.7mph /  14km/h 16.7mph /  26.9km/h 90% 0.0in /  0mm WeatherDisplay:10.37 W/m2 FEW
17:19 -9.6 °F /  -23.1 °C -10.8 °F /  -23.8 °C 1026.0in /  34740.4hPa NNW 5.8mph /  9.3km/h 14.8mph /  23.8km/h 91% 0.0in /  0mm WeatherDisplay:10.37 W/m2 FEW
17:24 -9.7 °F /  -23.2 °C -10.8 °F /  -23.8 °C 1026.0in /  34740.4hPa NNW 5.3mph /  8.5km/h 14.8mph /  23.8km/h 91% 0.0in /  0mm WeatherDisplay:10.37 W/m2 FEW
17:29 -9.7 °F /  -23.2 °C -10.9 °F /  -23.8 °C 1026.0in /  34740.4hPa NNW 8.7mph /  14km/h 16.7mph /  26.9km/h 91% 0.0in /  0mm WeatherDisplay:10.37 W/m2 FEW
17:34 -9.8 °F /  -23.2 °C -10.9 °F /  -23.8 °C 1026.0in /  34740.4hPa NNW 7.6mph /  12.2km/h 9.3mph /  15km/h 91% 0.0in /  0mm WeatherDisplay:10.37 W/m2 FEW
17:39 -9.8 °F /  -23.2 °C -11.0 °F /  -23.9 °C 1026.0in /  34740.4hPa NNW 4.0mph /  6.4km/h 5.6mph /  9km/h 91% 0.0in /  0mm WeatherDisplay:10.37 W/m2 FEW
17:44 -9.9 °F /  -23.3 °C -11.1 °F /  -23.9 °C 1026.0in /  34740.4hPa NNW 5.1mph /  8.2km/h 5.6mph /  9km/h 91% 0.0in /  0mm WeatherDisplay:10.37 W/m2 FEW
17:49 -9.9 °F /  -23.3 °C -11.1 °F /  -23.9 °C 1026.0in /  34740.4hPa NNW 6.0mph /  9.7km/h 8.0mph /  12.9km/h 91% 0.0in /  0mm WeatherDisplay:10.37 W/m2 FEW
17:54 -10.0 °F /  -23.3 °C -11.2 °F /  -24 °C 1026.0in /  34740.4hPa NNW 4.8mph /  7.7km/h 5.6mph /  9km/h 91% 0.0in /  0mm WeatherDisplay:10.37 W/m2 FEW
17:59 -10.1 °F /  -23.4 °C -11.2 °F /  -24 °C 1026.0in /  34740.4hPa NNW 6.1mph /  9.8km/h 14.8mph /  23.8km/h 91% 0.0in /  0mm WeatherDisplay:10.37 W/m2 FEW
18:04 -10.1 °F /  -23.4 °C -11.3 °F /  -24.1 °C 1026.0in /  34740.4hPa NNW 4.2mph /  6.8km/h 13.0mph /  20.9km/h 91% 0.0in /  0mm WeatherDisplay:10.37 W/m2 FEW
18:09 -10.2 °F /  -23.4 °C -11.3 °F /  -24.1 °C 1026.0in /  34740.4hPa NW 10.0mph /  16.1km/h 17.7mph /  28.5km/h 91% 0.0in /  0mm WeatherDisplay:10.37 W/m2 FEW
18:14 -10.2 °F /  -23.4 °C -11.4 °F /  -24.1 °C 1026.0in /  34740.4hPa NNW 6.3mph /  10.1km/h 7.4mph /  11.9km/h 91% 0.0in /  0mm WeatherDisplay:10.37 W/m2 FEW
18:19 -10.2 °F /  -23.4 °C -11.4 °F /  -24.1 °C 1026.0in /  34740.4hPa NNW 7.1mph /  11.4km/h 14.8mph /  23.8km/h 91% 0.0in /  0mm WeatherDisplay:10.37 W/m2 FEW
18:24 -10.3 °F /  -23.5 °C -11.4 °F /  -24.1 °C 1026.0in /  34740.4hPa NW 1.9mph /  3.1km/h 5.6mph /  9km/h 91% 0.0in /  0mm WeatherDisplay:10.37 W/m2 FEW
18:29 -10.3 °F /  -23.5 °C -11.4 °F /  -24.1 °C 1026.0in /  34740.4hPa NNW 6.0mph /  9.7km/h 14.8mph /  23.8km/h 91% 0.0in /  0mm WeatherDisplay:10.37 W/m2 FEW
18:34 -10.3 °F /  -23.5 °C -11.5 °F /  -24.2 °C 1026.0in /  34740.4hPa NNW 1.1mph /  1.8km/h 9.3mph /  15km/h 91% 0.0in /  0mm WeatherDisplay:10.37 W/m2 FEW
18:39 -10.3 °F /  -23.5 °C -11.5 °F /  -24.2 °C 1026.0in /  34740.4hPa NNW 5.6mph /  9km/h 7.4mph /  11.9km/h 91% 0.0in /  0mm WeatherDisplay:10.37 W/m2 FEW
18:44 -10.4 °F /  -23.6 °C -11.6 °F /  -24.2 °C 1026.3in /  34750.5hPa NNW 5.6mph /  9km/h 7.4mph /  11.9km/h 91% 0.0in /  0mm WeatherDisplay:10.37 W/m2 FEW
18:49 -10.4 °F /  -23.6 °C -11.6 °F /  -24.2 °C 1026.0in /  34740.4hPa NNW 2.7mph /  4.3km/h 5.6mph /  9km/h 91% 0.0in /  0mm WeatherDisplay:10.37 W/m2 FEW
18:54 -10.4 °F /  -23.6 °C -11.6 °F /  -24.2 °C 1026.0in /  34740.4hPa NNW 6.4mph /  10.3km/h 8.0mph /  12.9km/h 91% 0.0in /  0mm WeatherDisplay:10.37 W/m2 FEW
18:59 -10.4 °F /  -23.6 °C -11.6 °F /  -24.2 °C 1026.3in /  34750.5hPa NNW 5.0mph /  8km/h 7.4mph /  11.9km/h 91% 0.0in /  0mm WeatherDisplay:10.37 W/m2 FEW
19:04 -10.5 °F /  -23.6 °C -11.7 °F /  -24.3 °C 1026.3in /  34750.5hPa NNW 3.1mph /  5km/h 7.4mph /  11.9km/h 91% 0.0in /  0mm WeatherDisplay:10.37 W/m2 FEW
19:09 -10.5 °F /  -23.6 °C -11.7 °F /  -24.3 °C 1026.3in /  34750.5hPa NW 2.9mph /  4.7km/h 9.3mph /  15km/h 91% 0.0in /  0mm WeatherDisplay:10.37 W/m2 FEW
19:14 -10.5 °F /  -23.6 °C -11.6 °F /  -24.2 °C 1026.3in /  34750.5hPa NNW 5.5mph /  8.9km/h 13.0mph /  20.9km/h 92% 0.0in /  0mm WeatherDisplay:10.37 W/m2 FEW
19:19 -10.4 °F /  -23.6 °C -11.5 °F /  -24.2 °C 1026.3in /  34750.5hPa NNW 5.8mph /  9.3km/h 13.0mph /  20.9km/h 92% 0.0in /  0mm WeatherDisplay:10.37 W/m2 FEW
19:24 -10.4 °F /  -23.6 °C -11.6 °F /  -24.2 °C 1026.6in /  34760.7hPa NW 5.3mph /  8.5km/h 7.4mph /  11.9km/h 91% 0.0in /  0mm WeatherDisplay:10.37 W/m2 FEW
19:29 -10.4 °F /  -23.6 °C -11.6 °F /  -24.2 °C 1026.6in /  34760.7hPa NW 5.3mph /  8.5km/h 9.3mph /  15km/h 91% 0.0in /  0mm WeatherDisplay:10.37 W/m2 FEW
19:34 -10.3 °F /  -23.5 °C -11.5 °F /  -24.2 °C 1026.6in /  34760.7hPa NNW 5.6mph /  9km/h 7.4mph /  11.9km/h 91% 0.0in /  0mm WeatherDisplay:10.37 W/m2 FEW
19:39 -10.3 °F /  -23.5 °C -11.5 °F /  -24.2 °C 1026.6in /  34760.7hPa NNW 8.7mph /  14km/h 14.8mph /  23.8km/h 91% 0.0in /  0mm WeatherDisplay:10.37 W/m2 FEW
19:44 -10.3 °F /  -23.5 °C -11.5 °F /  -24.2 °C 1026.6in /  34760.7hPa NNW 6.8mph /  10.9km/h 13.0mph /  20.9km/h 91% 0.0in /  0mm WeatherDisplay:10.37 W/m2 FEW
19:49 -10.3 °F /  -23.5 °C -11.5 °F /  -24.2 °C 1026.6in /  34760.7hPa NNW 9.2mph /  14.8km/h 14.8mph /  23.8km/h 91% 0.0in /  0mm WeatherDisplay:10.37 W/m2 FEW
19:54 -10.3 °F /  -23.5 °C -11.5 °F /  -24.2 °C 1026.6in /  34760.7hPa NNW 6.3mph /  10.1km/h 7.4mph /  11.9km/h 91% 0.0in /  0mm WeatherDisplay:10.37 W/m2 FEW
19:59 -10.3 °F /  -23.5 °C -11.5 °F /  -24.2 °C 1026.6in /  34760.7hPa NNW 5.0mph /  8km/h 14.8mph /  23.8km/h 91% 0.0in /  0mm WeatherDisplay:10.37 W/m2 FEW
20:04 -10.3 °F /  -23.5 °C -11.5 °F /  -24.2 °C 1027.0in /  34774.2hPa NW 6.3mph /  10.1km/h 13.0mph /  20.9km/h 91% 0.0in /  0mm WeatherDisplay:10.37 W/m2 FEW
20:09 -10.3 °F /  -23.5 °C -11.5 °F /  -24.2 °C 1027.0in /  34774.2hPa NNW 9.7mph /  15.6km/h 16.7mph /  26.9km/h 91% 0.0in /  0mm WeatherDisplay:10.37 W/m2 FEW
20:14 -10.3 °F /  -23.5 °C -11.4 °F /  -24.1 °C 1026.6in /  34760.7hPa NW 7.1mph /  11.4km/h 14.8mph /  23.8km/h 91% 0.0in /  0mm WeatherDisplay:10.37 W/m2 FEW
20:19 -10.3 °F /  -23.5 °C -11.4 °F /  -24.1 °C 1026.6in /  34760.7hPa NNW 6.8mph /  10.9km/h 17.7mph /  28.5km/h 91% 0.0in /  0mm WeatherDisplay:10.37 W/m2 FEW
20:24 -10.3 °F /  -23.5 °C -11.4 °F /  -24.1 °C 1027.0in /  34774.2hPa NNW 6.0mph /  9.7km/h 9.3mph /  15km/h 91% 0.0in /  0mm WeatherDisplay:10.37 W/m2 FEW
20:29 -10.3 °F /  -23.5 °C -11.4 °F /  -24.1 °C 1026.6in /  34760.7hPa North 8.7mph /  14km/h 13.0mph /  20.9km/h 91% 0.0in /  0mm WeatherDisplay:10.37 W/m2 FEW
20:34 -10.3 °F /  -23.5 °C -11.5 °F /  -24.2 °C 1026.6in /  34760.7hPa NNW 9.7mph /  15.6km/h 14.8mph /  23.8km/h 91% 0.0in /  0mm WeatherDisplay:10.37 W/m2 FEW
20:39 -10.3 °F /  -23.5 °C -11.5 °F /  -24.2 °C 1027.0in /  34774.2hPa NNW 7.4mph /  11.9km/h 16.1mph /  25.9km/h 91% 0.0in /  0mm WeatherDisplay:10.37 W/m2 FEW
20:44 -10.3 °F /  -23.5 °C -11.5 °F /  -24.2 °C 1027.0in /  34774.2hPa NW 4.0mph /  6.4km/h 9.7mph /  15.6km/h 91% 0.0in /  0mm WeatherDisplay:10.37 W/m2 FEW
20:50 -10.4 °F /  -23.6 °C -11.6 °F /  -24.2 °C 1027.0in /  34774.2hPa NNW 6.3mph /  10.1km/h 9.3mph /  15km/h 91% 0.0in /  0mm WeatherDisplay:10.37 W/m2 FEW
20:55 -10.4 °F /  -23.6 °C -11.6 °F /  -24.2 °C 1027.0in /  34774.2hPa North 5.8mph /  9.3km/h 9.7mph /  15.6km/h 91% 0.0in /  0mm WeatherDisplay:10.37 W/m2 FEW
21:00 -10.4 °F /  -23.6 °C -11.6 °F /  -24.2 °C 1027.0in /  34774.2hPa NNW 7.1mph /  11.4km/h 14.8mph /  23.8km/h 91% 0.0in /  0mm WeatherDisplay:10.37 W/m2 FEW
21:05 -10.4 °F /  -23.6 °C -11.6 °F /  -24.2 °C 1027.0in /  34774.2hPa NNW 8.2mph /  13.2km/h 13.0mph /  20.9km/h 91% 0.0in /  0mm WeatherDisplay:10.37 W/m2 FEW
21:10 -10.6 °F /  -23.7 °C -11.7 °F /  -24.3 °C 1027.0in /  34774.2hPa NNW 5.6mph /  9km/h 9.3mph /  15km/h 91% 0.0in /  0mm WeatherDisplay:10.37 W/m2 FEW
21:15 -10.6 °F /  -23.7 °C -11.7 °F /  -24.3 °C 1027.0in /  34774.2hPa NNW 4.7mph /  7.6km/h 7.4mph /  11.9km/h 91% 0.0in /  0mm WeatherDisplay:10.37 W/m2 FEW
21:20 -10.6 °F /  -23.7 °C -11.8 °F /  -24.3 °C 1027.0in /  34774.2hPa NW 6.4mph /  10.3km/h 13.0mph /  20.9km/h 91% 0.0in /  0mm WeatherDisplay:10.37 W/m2 FEW
21:25 -10.6 °F /  -23.7 °C -11.8 °F /  -24.3 °C 1027.0in /  34774.2hPa NNW 4.8mph /  7.7km/h 7.4mph /  11.9km/h 91% 0.0in /  0mm WeatherDisplay:10.37 W/m2 FEW
21:30 -10.7 °F /  -23.7 °C -11.8 °F /  -24.3 °C 1027.0in /  34774.2hPa NNW 4.8mph /  7.7km/h 13.0mph /  20.9km/h 91% 0.0in /  0mm WeatherDisplay:10.37 W/m2 FEW
21:35 -10.7 °F /  -23.7 °C -11.9 °F /  -24.4 °C 1027.0in /  34774.2hPa NW 5.6mph /  9km/h 7.4mph /  11.9km/h 91% 0.0in /  0mm WeatherDisplay:10.37 W/m2 FEW
21:40 -10.7 °F /  -23.7 °C -11.9 °F /  -24.4 °C 1027.3in /  34784.4hPa NNW 6.6mph /  10.6km/h 9.3mph /  15km/h 91% 0.0in /  0mm WeatherDisplay:10.37 W/m2 FEW
21:45 -10.7 °F /  -23.7 °C -11.9 °F /  -24.4 °C 1027.0in /  34774.2hPa NW 4.0mph /  6.4km/h 9.7mph /  15.6km/h 91% 0.0in /  0mm WeatherDisplay:10.37 W/m2 FEW
21:50 -10.8 °F /  -23.8 °C -11.9 °F /  -24.4 °C 1027.3in /  34784.4hPa NNW 6.4mph /  10.3km/h 14.8mph /  23.8km/h 91% 0.0in /  0mm WeatherDisplay:10.37 W/m2 FEW
21:55 -10.8 °F /  -23.8 °C -12.0 °F /  -24.4 °C 1027.0in /  34774.2hPa NNW 7.6mph /  12.2km/h 9.3mph /  15km/h 91% 0.0in /  0mm WeatherDisplay:10.37 W/m2 FEW
22:00 -10.9 °F /  -23.8 °C -12.1 °F /  -24.5 °C 1027.0in /  34774.2hPa NW 6.6mph /  10.6km/h 13.0mph /  20.9km/h 91% 0.0in /  0mm WeatherDisplay:10.37 W/m2 FEW
22:05 -10.9 °F /  -23.8 °C -12.1 °F /  -24.5 °C 1027.0in /  34774.2hPa NNW 6.8mph /  10.9km/h 13.0mph /  20.9km/h 91% 0.0in /  0mm WeatherDisplay:10.37 W/m2 FEW
22:10 -10.9 °F /  -23.8 °C -12.1 °F /  -24.5 °C 1027.0in /  34774.2hPa NNW 6.8mph /  10.9km/h 14.8mph /  23.8km/h 91% 0.0in /  0mm WeatherDisplay:10.37 W/m2 FEW
22:15 -10.9 °F /  -23.8 °C -12.1 °F /  -24.5 °C 1027.0in /  34774.2hPa NNW 7.7mph /  12.4km/h 9.7mph /  15.6km/h 91% 0.0in /  0mm WeatherDisplay:10.37 W/m2 FEW
22:20 -11.0 °F /  -23.9 °C -12.2 °F /  -24.6 °C 1027.0in /  34774.2hPa NNW 3.7mph /  6km/h 9.3mph /  15km/h 91% 0.0in /  0mm WeatherDisplay:10.37 W/m2 FEW
22:25 -11.1 °F /  -23.9 °C -12.2 °F /  -24.6 °C 1027.3in /  34784.4hPa NNW 6.6mph /  10.6km/h 9.3mph /  15km/h 91% 0.0in /  0mm WeatherDisplay:10.37 W/m2 FEW
22:30 -11.0 °F /  -23.9 °C -12.2 °F /  -24.6 °C 1027.0in /  34774.2hPa NNW 6.1mph /  9.8km/h 13.0mph /  20.9km/h 91% 0.0in /  0mm WeatherDisplay:10.37 W/m2 FEW
22:36 -11.0 °F /  -23.9 °C -12.2 °F /  -24.6 °C 1027.3in /  34784.4hPa NNW 2.6mph /  4.2km/h 7.4mph /  11.9km/h 91% 0.0in /  0mm WeatherDisplay:10.37 W/m2 FEW
22:41 -11.1 °F /  -23.9 °C -12.2 °F /  -24.6 °C 1027.3in /  34784.4hPa NNW 4.5mph /  7.2km/h 5.6mph /  9km/h 91% 0.0in /  0mm WeatherDisplay:10.37 W/m2 FEW
22:46 -11.1 °F /  -23.9 °C -12.2 °F /  -24.6 °C 1027.3in /  34784.4hPa NNW 4.5mph /  7.2km/h 9.3mph /  15km/h 91% 0.0in /  0mm WeatherDisplay:10.37 W/m2 FEW
22:51 -11.2 °F /  -24 °C -12.3 °F /  -24.6 °C 1027.3in /  34784.4hPa NNW 3.5mph /  5.6km/h 5.6mph /  9km/h 91% 0.0in /  0mm WeatherDisplay:10.37 W/m2 FEW
22:56 -11.1 °F /  -23.9 °C -12.3 °F /  -24.6 °C 1027.3in /  34784.4hPa NNW 4.5mph /  7.2km/h 8.0mph /  12.9km/h 91% 0.0in /  0mm WeatherDisplay:10.37 W/m2 FEW
23:01 -11.1 °F /  -23.9 °C -12.2 °F /  -24.6 °C 1027.3in /  34784.4hPa NNW 6.1mph /  9.8km/h 13.0mph /  20.9km/h 92% 0.0in /  0mm WeatherDisplay:10.37 W/m2 FEW
23:06 -11.1 °F /  -23.9 °C -12.1 °F /  -24.5 °C 1027.3in /  34784.4hPa NNW 7.7mph /  12.4km/h 14.5mph /  23.3km/h 92% 0.0in /  0mm WeatherDisplay:10.37 W/m2 FEW
23:11 -11.0 °F /  -23.9 °C -12.1 °F /  -24.5 °C 1027.3in /  34784.4hPa NNW 5.5mph /  8.9km/h 9.3mph /  15km/h 92% 0.0in /  0mm WeatherDisplay:10.37 W/m2 FEW
23:16 -10.9 °F /  -23.8 °C -12.0 °F /  -24.4 °C 1027.3in /  34784.4hPa NNW 5.3mph /  8.5km/h 9.7mph /  15.6km/h 92% 0.0in /  0mm WeatherDisplay:10.37 W/m2 FEW
23:21 -10.9 °F /  -23.8 °C -11.9 °F /  -24.4 °C 1027.3in /  34784.4hPa NW 5.6mph /  9km/h 14.8mph /  23.8km/h 92% 0.0in /  0mm WeatherDisplay:10.37 W/m2 FEW
23:26 -10.9 °F /  -23.8 °C -12.1 °F /  -24.5 °C 1027.0in /  34774.2hPa NNW 7.1mph /  11.4km/h 8.0mph /  12.9km/h 91% 0.0in /  0mm WeatherDisplay:10.37 W/m2 FEW
23:31 -10.9 °F /  -23.8 °C -12.1 °F /  -24.5 °C 1027.0in /  34774.2hPa NNW 5.5mph /  8.9km/h 14.5mph /  23.3km/h 91% 0.0in /  0mm WeatherDisplay:10.37 W/m2 FEW
23:36 -10.9 °F /  -23.8 °C -12.1 °F /  -24.5 °C 1027.0in /  34774.2hPa NNW 5.5mph /  8.9km/h 13.0mph /  20.9km/h 91% 0.0in /  0mm WeatherDisplay:10.37 W/m2 FEW
23:41 -10.8 °F /  -23.8 °C -12.0 °F /  -24.4 °C 1027.3in /  34784.4hPa NNW 6.0mph /  9.7km/h 9.3mph /  15km/h 91% 0.0in /  0mm WeatherDisplay:10.37 W/m2 FEW
23:46 -10.9 °F /  -23.8 °C -12.1 °F /  -24.5 °C 1027.3in /  34784.4hPa North 7.9mph /  12.7km/h 9.3mph /  15km/h 91% 0.0in /  0mm WeatherDisplay:10.37 W/m2 FEW
23:51 -10.9 °F /  -23.8 °C -12.1 °F /  -24.5 °C 1027.3in /  34784.4hPa NNW 5.8mph /  9.3km/h 16.7mph /  26.9km/h 91% 0.0in /  0mm WeatherDisplay:10.37 W/m2 FEW
23:56 -10.8 °F /  -23.8 °C -12.0 °F /  -24.4 °C 1027.3in /  34784.4hPa NNW 8.7mph /  14km/h 9.3mph /  15km/h 91% 0.0in /  0mm WeatherDisplay:10.37 W/m2 FEW
Tuulensuunkaari, Veikkola, Suomi
Compliments of Weather Underground - 2.75 mb